createdAt,value
2023-02-19T00:00:08.283Z,6.16
2023-02-19T00:01:08.319Z,6.01
2023-02-19T00:02:08.474Z,6.07
2023-02-19T00:03:08.004Z,6.07
2023-02-19T00:04:08.079Z,5.97
2023-02-19T00:05:08.003Z,5.94
2023-02-19T00:06:08.091Z,5.97
2023-02-19T00:07:07.773Z,5.88
2023-02-19T00:08:07.951Z,5.92
2023-02-19T00:09:07.687Z,5.95
2023-02-19T00:10:07.926Z,5.98
2023-02-19T00:11:07.818Z,5.91
2023-02-19T00:12:07.723Z,5.97
2023-02-19T00:13:07.582Z,5.88
2023-02-19T00:14:07.745Z,5.95
2023-02-19T00:15:07.404Z,6.01
2023-02-19T00:16:07.585Z,5.90
2023-02-19T00:17:07.602Z,5.84
2023-02-19T00:18:07.375Z,5.83
2023-02-19T00:19:07.244Z,5.90
2023-02-19T00:20:07.367Z,5.94
2023-02-19T00:21:07.139Z,5.83
2023-02-19T00:22:07.179Z,5.88
2023-02-19T00:23:07.017Z,5.91
2023-02-19T00:24:07.202Z,5.84
2023-02-19T00:25:06.926Z,5.84
2023-02-19T00:26:17.745Z,5.73
2023-02-19T00:27:06.852Z,5.83
2023-02-19T00:28:07.018Z,5.80
2023-02-19T00:29:06.733Z,5.79
2023-02-19T00:30:07.898Z,5.79
2023-02-19T00:31:06.686Z,5.77
2023-02-19T00:32:06.911Z,5.74
2023-02-19T00:33:06.698Z,5.73
2023-02-19T00:34:06.665Z,5.79
2023-02-19T00:35:06.453Z,5.79
2023-02-19T00:36:06.676Z,5.76
2023-02-19T00:37:06.352Z,5.81
2023-02-19T00:38:06.480Z,5.73
2023-02-19T00:39:06.283Z,5.72
2023-02-19T00:40:06.500Z,5.77
2023-02-19T00:41:06.166Z,5.77
2023-02-19T00:42:06.318Z,5.79
2023-02-19T00:43:06.084Z,5.70
2023-02-19T00:44:06.333Z,5.79
2023-02-19T00:45:06.121Z,5.74
2023-02-19T00:46:05.976Z,5.70
2023-02-19T00:47:06.155Z,5.70
2023-02-19T00:48:05.844Z,5.67
2023-02-19T00:49:05.854Z,5.76
2023-02-19T00:50:05.794Z,5.62
2023-02-19T00:51:05.710Z,5.62
2023-02-19T00:52:05.654Z,5.58
2023-02-19T00:53:05.913Z,5.62
2023-02-19T00:54:05.557Z,5.62
2023-02-19T00:55:05.684Z,5.79
2023-02-19T00:56:06.768Z,5.64
2023-02-19T00:57:05.413Z,5.65
2023-02-19T00:58:05.367Z,5.64
2023-02-19T00:59:05.518Z,5.69
2023-02-19T01:00:05.265Z,5.64
2023-02-19T01:01:05.325Z,5.72
2023-02-19T01:02:05.374Z,5.65
2023-02-19T01:03:05.333Z,5.65
2023-02-19T01:04:06.538Z,5.64
2023-02-19T01:05:05.141Z,5.64
2023-02-19T01:06:04.984Z,5.74
2023-02-19T01:07:05.157Z,5.62
2023-02-19T01:08:05.013Z,5.65
2023-02-19T01:09:04.983Z,5.67
2023-02-19T01:10:04.797Z,5.58
2023-02-19T01:11:04.992Z,5.59
2023-02-19T01:12:04.692Z,5.56
2023-02-19T01:13:04.785Z,5.64
2023-02-19T01:14:04.613Z,5.64
2023-02-19T01:15:04.666Z,5.64
2023-02-19T01:16:04.554Z,5.64
2023-02-19T01:17:05.638Z,5.61
2023-02-19T01:18:04.404Z,5.61
2023-02-19T01:19:04.630Z,5.56
2023-02-19T01:20:04.333Z,5.64
2023-02-19T01:21:04.435Z,5.55
2023-02-19T01:22:05.676Z,5.65
2023-02-19T01:23:04.169Z,5.49
2023-02-19T01:24:04.253Z,5.61
2023-02-19T01:25:04.076Z,5.56
2023-02-19T01:26:04.289Z,5.51
2023-02-19T01:27:03.988Z,5.52
2023-02-19T01:28:03.949Z,5.49
2023-02-19T01:29:03.888Z,5.46
2023-02-19T01:30:04.138Z,5.46
2023-02-19T01:31:03.818Z,5.44
2023-02-19T01:32:03.997Z,5.51
2023-02-19T01:33:03.704Z,5.41
2023-02-19T01:34:03.966Z,5.37
2023-02-19T01:35:03.720Z,5.38
2023-02-19T01:36:03.543Z,5.44
2023-02-19T01:37:03.736Z,5.54
2023-02-19T01:38:03.497Z,5.46
2023-02-19T01:39:03.547Z,5.49
2023-02-19T01:40:03.356Z,5.47
2023-02-19T01:41:03.357Z,5.46
2023-02-19T01:42:03.418Z,5.49
2023-02-19T01:43:04.400Z,5.62
2023-02-19T01:44:03.186Z,5.58
2023-02-19T01:45:03.445Z,5.52
2023-02-19T01:46:03.070Z,5.61
2023-02-19T01:47:03.028Z,5.62
2023-02-19T01:48:03.217Z,5.51
2023-02-19T01:49:02.988Z,5.49
2023-02-19T01:50:03.022Z,5.59
2023-02-19T01:51:02.840Z,5.47
2023-02-19T01:52:03.035Z,5.51
2023-02-19T01:53:02.885Z,5.52
2023-02-19T01:54:02.851Z,5.67
2023-02-19T01:55:02.692Z,5.55
2023-02-19T01:56:02.648Z,5.65
2023-02-19T01:57:02.556Z,5.64
2023-02-19T01:58:02.662Z,5.62
2023-02-19T01:59:03.695Z,5.62
2023-02-19T02:00:02.409Z,5.72
2023-02-19T02:01:02.620Z,5.72
2023-02-19T02:02:02.377Z,5.79
2023-02-19T02:03:02.414Z,5.76
2023-02-19T02:04:02.315Z,5.73
2023-02-19T02:05:02.172Z,5.76
2023-02-19T02:06:02.140Z,5.79
2023-02-19T02:07:02.383Z,5.69
2023-02-19T02:08:02.063Z,5.72
2023-02-19T02:09:02.041Z,5.69
2023-02-19T02:10:01.933Z,5.62
2023-02-19T02:11:01.942Z,5.59
2023-02-19T02:12:01.833Z,5.59
2023-02-19T02:13:02.260Z,5.51
2023-02-19T02:14:01.740Z,5.54
2023-02-19T02:15:01.883Z,5.54
2023-02-19T02:16:01.715Z,5.55
2023-02-19T02:17:01.594Z,5.52
2023-02-19T02:18:01.558Z,5.59
2023-02-19T02:19:02.134Z,5.59
2023-02-19T02:20:01.477Z,5.58
2023-02-19T02:21:01.722Z,5.61
2023-02-19T02:22:01.399Z,5.67
2023-02-19T02:23:01.532Z,5.62
2023-02-19T02:24:01.278Z,5.49
2023-02-19T02:25:01.540Z,5.55
2023-02-19T02:26:01.197Z,5.61
2023-02-19T02:27:01.355Z,5.54
2023-02-19T02:28:01.085Z,5.54
2023-02-19T02:29:01.161Z,5.64
2023-02-19T02:30:01.049Z,5.55
2023-02-19T02:31:01.424Z,5.51
2023-02-19T02:32:01.087Z,5.58
2023-02-19T02:33:00.989Z,5.59
2023-02-19T02:34:00.803Z,5.61
2023-02-19T02:35:00.997Z,5.56
2023-02-19T02:36:00.698Z,5.69
2023-02-19T02:37:01.017Z,5.73
2023-02-19T02:38:00.607Z,5.69
2023-02-19T02:39:00.822Z,5.76
2023-02-19T02:40:00.580Z,5.67
2023-02-19T02:41:00.639Z,5.61
2023-02-19T02:42:00.413Z,5.58
2023-02-19T02:43:01.069Z,5.58
2023-02-19T02:44:00.319Z,5.73
2023-02-19T02:45:00.498Z,5.73
2023-02-19T02:46:00.271Z,5.79
2023-02-19T02:47:00.468Z,5.76
2023-02-19T02:48:00.276Z,5.88
2023-02-19T02:49:00.220Z,5.90
2023-02-19T02:50:00.284Z,5.90
2023-02-19T02:51:00.095Z,5.98
2023-02-19T02:52:00.107Z,5.99
2023-02-19T02:52:59.904Z,5.99
2023-02-19T02:53:59.848Z,6.06
2023-02-19T02:55:02.420Z,6.16
2023-02-19T02:55:59.917Z,6.09
2023-02-19T02:56:59.702Z,6.17
2023-02-19T02:57:59.999Z,6.20
2023-02-19T02:58:59.609Z,6.16
2023-02-19T02:59:59.553Z,6.17
2023-02-19T03:00:59.546Z,6.10
2023-02-19T03:01:59.782Z,6.15
2023-02-19T03:02:59.416Z,6.13
2023-02-19T03:03:59.569Z,6.06
2023-02-19T03:04:59.329Z,6.15
2023-02-19T03:05:59.277Z,6.29
2023-02-19T03:06:59.442Z,6.26
2023-02-19T03:07:59.449Z,6.34
2023-02-19T03:08:59.129Z,6.31
2023-02-19T03:09:59.216Z,6.31
2023-02-19T03:10:59.046Z,6.38
2023-02-19T03:11:58.983Z,6.22
2023-02-19T03:12:58.992Z,6.28
2023-02-19T03:13:59.062Z,6.29
2023-02-19T03:14:58.866Z,6.25
2023-02-19T03:15:59.043Z,6.25
2023-02-19T03:16:58.748Z,6.25
2023-02-19T03:17:59.634Z,6.26
2023-02-19T03:18:58.722Z,6.25
2023-02-19T03:19:58.663Z,6.26
2023-02-19T03:20:58.561Z,6.29
2023-02-19T03:21:58.576Z,6.28
2023-02-19T03:22:58.650Z,6.34
2023-02-19T03:23:58.688Z,6.32
2023-02-19T03:24:58.371Z,6.34
2023-02-19T03:25:58.505Z,6.34
2023-02-19T03:26:58.275Z,6.34
2023-02-19T03:27:58.451Z,6.36
2023-02-19T03:28:58.278Z,6.36
2023-02-19T03:29:58.399Z,6.32
2023-02-19T03:30:58.123Z,6.35
2023-02-19T03:31:58.264Z,6.34
2023-02-19T03:32:57.993Z,6.39
2023-02-19T03:33:58.046Z,6.47
2023-02-19T03:34:57.919Z,6.36
2023-02-19T03:35:58.058Z,6.34
2023-02-19T03:36:57.813Z,6.35
2023-02-19T03:37:57.876Z,6.36
2023-02-19T03:38:57.710Z,6.28
2023-02-19T03:39:57.679Z,6.25
2023-02-19T03:40:57.734Z,6.28
2023-02-19T03:41:57.691Z,6.31
2023-02-19T03:42:57.513Z,6.28
2023-02-19T03:43:57.505Z,6.20
2023-02-19T03:44:57.449Z,6.28
2023-02-19T03:45:57.450Z,6.20
2023-02-19T03:46:57.612Z,6.25
2023-02-19T03:47:57.338Z,6.25
2023-02-19T03:48:57.233Z,6.25
2023-02-19T03:49:57.241Z,6.17
2023-02-19T03:50:57.141Z,6.28
2023-02-19T03:51:57.156Z,6.32
2023-02-19T03:52:57.059Z,6.44
2023-02-19T03:53:56.988Z,6.43
2023-02-19T03:54:56.946Z,6.57
2023-02-19T03:55:57.024Z,6.68
2023-02-19T03:56:57.112Z,6.77
2023-02-19T03:57:56.892Z,6.83
2023-02-19T03:58:56.761Z,6.87
2023-02-19T03:59:56.731Z,6.96
2023-02-19T04:00:56.692Z,7.13
2023-02-19T04:01:56.832Z,7.11
2023-02-19T04:02:56.586Z,7.22
2023-02-19T04:03:56.637Z,7.28
2023-02-19T04:04:56.524Z,7.51
2023-02-19T04:05:56.428Z,7.55
2023-02-19T04:06:56.381Z,7.67
2023-02-19T04:07:56.570Z,7.88
2023-02-19T04:08:56.413Z,7.91
2023-02-19T04:09:56.363Z,8.16
2023-02-19T04:10:56.278Z,8.35
2023-02-19T04:11:56.143Z,8.46
2023-02-19T04:12:56.189Z,8.59
2023-02-19T04:13:56.080Z,8.84
2023-02-19T04:14:56.199Z,9.09
2023-02-19T04:15:55.962Z,9.05
2023-02-19T04:16:56.096Z,9.05
2023-02-19T04:17:56.019Z,9.33
2023-02-19T04:18:55.831Z,9.42
2023-02-19T04:19:55.830Z,9.56
2023-02-19T04:20:55.744Z,9.62
2023-02-19T04:21:55.743Z,9.72
2023-02-19T04:22:55.660Z,9.74
2023-02-19T04:23:55.604Z,9.80
2023-02-19T04:24:55.723Z,9.81
2023-02-19T04:25:55.534Z,9.88
2023-02-19T04:26:55.595Z,9.95
2023-02-19T04:27:55.461Z,9.94
2023-02-19T04:28:55.485Z,9.94
2023-02-19T04:29:55.302Z,9.99
2023-02-19T04:30:55.544Z,9.95
2023-02-19T04:31:55.264Z,9.90
2023-02-19T04:32:55.312Z,10.02
2023-02-19T04:33:55.125Z,10.02
2023-02-19T04:34:55.127Z,10.03
2023-02-19T04:35:55.039Z,10.23
2023-02-19T04:36:55.133Z,10.10
2023-02-19T04:37:54.931Z,10.12
2023-02-19T04:38:55.145Z,10.13
2023-02-19T04:39:54.885Z,10.24
2023-02-19T04:40:54.806Z,10.27
2023-02-19T04:41:54.758Z,10.28
2023-02-19T04:42:54.966Z,10.31
2023-02-19T04:43:54.664Z,10.41
2023-02-19T04:44:54.672Z,10.42
2023-02-19T04:45:54.698Z,10.49
2023-02-19T04:46:54.525Z,10.45
2023-02-19T04:47:54.475Z,10.39
2023-02-19T04:48:54.602Z,10.51
2023-02-19T04:49:54.381Z,10.55
2023-02-19T04:50:54.416Z,10.55
2023-02-19T04:51:54.290Z,10.53
2023-02-19T04:52:54.250Z,10.43
2023-02-19T04:53:54.205Z,10.55
2023-02-19T04:54:54.447Z,10.48
2023-02-19T04:55:54.118Z,10.39
2023-02-19T04:56:54.253Z,10.57
2023-02-19T04:57:54.014Z,10.36
2023-02-19T04:58:53.968Z,10.42
2023-02-19T04:59:54.063Z,10.38
2023-02-19T05:00:53.899Z,10.38
2023-02-19T05:01:53.908Z,10.39
2023-02-19T05:02:53.780Z,10.45
2023-02-19T05:03:53.895Z,10.34
2023-02-19T05:04:53.694Z,10.31
2023-02-19T05:05:54.732Z,10.34
2023-02-19T05:06:53.761Z,10.30
2023-02-19T05:07:53.619Z,10.31
2023-02-19T05:08:53.504Z,10.23
2023-02-19T05:09:53.524Z,10.33
2023-02-19T05:10:53.441Z,10.38
2023-02-19T05:11:53.547Z,10.42
2023-02-19T05:12:53.322Z,10.34
2023-02-19T05:14:01.484Z,10.30
2023-02-19T05:15:01.026Z,10.30
2023-02-19T05:16:02.454Z,10.28
2023-02-19T05:16:53.318Z,10.31
2023-02-19T05:17:53.174Z,10.33
2023-02-19T05:18:53.046Z,10.30
2023-02-19T05:19:53.187Z,10.30
2023-02-19T05:20:52.960Z,10.39
2023-02-19T05:21:52.906Z,10.38
2023-02-19T05:22:52.893Z,10.36
2023-02-19T05:23:52.914Z,10.55
2023-02-19T05:24:52.770Z,10.43
2023-02-19T05:25:52.861Z,10.43
2023-02-19T05:26:52.676Z,10.49
2023-02-19T05:27:52.689Z,10.51
2023-02-19T05:28:52.598Z,10.58
2023-02-19T05:29:52.645Z,10.51
2023-02-19T05:30:52.563Z,10.58
2023-02-19T05:31:52.769Z,10.51
2023-02-19T05:32:52.404Z,10.55
2023-02-19T05:33:52.352Z,10.64
2023-02-19T05:34:52.313Z,10.68
2023-02-19T05:35:52.488Z,10.61
2023-02-19T05:36:52.223Z,10.51
2023-02-19T05:37:52.304Z,10.59
2023-02-19T05:38:52.169Z,10.65
2023-02-19T05:39:52.077Z,10.57
2023-02-19T05:40:52.225Z,10.58
2023-02-19T05:41:51.991Z,10.43
2023-02-19T05:42:52.023Z,10.46
2023-02-19T05:43:51.914Z,10.41
2023-02-19T05:44:52.250Z,10.30
2023-02-19T05:45:51.803Z,10.49
2023-02-19T05:46:51.858Z,10.43
2023-02-19T05:47:51.717Z,10.42
2023-02-19T05:48:51.898Z,10.45
2023-02-19T05:49:51.627Z,10.39
2023-02-19T05:50:51.884Z,10.39
2023-02-19T05:51:51.565Z,10.34
2023-02-19T05:52:51.690Z,10.28
2023-02-19T05:53:51.441Z,10.33
2023-02-19T05:54:51.499Z,10.41
2023-02-19T05:55:51.357Z,10.30
2023-02-19T05:56:51.723Z,10.33
2023-02-19T05:57:52.341Z,10.12
2023-02-19T05:58:51.203Z,10.25
2023-02-19T05:59:51.329Z,10.10
2023-02-19T06:03:47.697Z,10.12
2023-02-19T06:04:47.496Z,10.13
2023-02-19T06:05:47.690Z,10.10
2023-02-19T06:06:47.390Z,10.02
2023-02-19T06:07:47.503Z,10.00
2023-02-19T06:08:47.314Z,10.09
2023-02-19T06:09:47.249Z,10.07
2023-02-19T06:10:47.725Z,10.12
2023-02-19T06:11:47.166Z,10.15
2023-02-19T06:12:47.329Z,10.21
2023-02-19T06:13:47.062Z,10.31
2023-02-19T06:14:47.139Z,10.31
2023-02-19T06:15:47.047Z,10.27
2023-02-19T06:16:47.162Z,10.36
2023-02-19T06:17:46.877Z,10.45
2023-02-19T06:18:47.003Z,10.42
2023-02-19T06:19:46.794Z,10.41
2023-02-19T06:20:46.836Z,10.48
2023-02-19T06:21:46.694Z,10.53
2023-02-19T06:22:46.996Z,10.53
2023-02-19T06:23:46.605Z,10.41
2023-02-19T06:24:46.808Z,10.43
2023-02-19T06:25:46.522Z,10.42
2023-02-19T06:26:46.474Z,10.38
2023-02-19T06:27:46.426Z,10.45
2023-02-19T06:28:46.627Z,10.51
2023-02-19T06:29:46.334Z,10.57
2023-02-19T06:30:46.440Z,10.57
2023-02-19T06:31:46.368Z,10.67
2023-02-19T06:32:46.227Z,10.64
2023-02-19T06:33:46.156Z,10.64
2023-02-19T06:34:46.273Z,10.76
2023-02-19T06:35:46.057Z,10.77
2023-02-19T06:36:46.085Z,10.83
2023-02-19T06:37:45.963Z,10.90
2023-02-19T06:38:45.918Z,10.86
2023-02-19T06:39:46.314Z,10.95
2023-02-19T06:40:45.828Z,10.98
2023-02-19T06:41:45.925Z,11.07
2023-02-19T06:42:45.739Z,11.10
2023-02-19T06:43:45.927Z,11.10
2023-02-19T06:44:45.732Z,11.05
2023-02-19T06:45:45.626Z,11.08
2023-02-19T06:46:45.961Z,11.02
2023-02-19T06:47:45.511Z,11.08
2023-02-19T06:48:45.570Z,11.13
2023-02-19T06:49:45.448Z,11.08
2023-02-19T06:50:45.373Z,11.15
2023-02-19T06:51:45.385Z,11.23
2023-02-19T06:52:45.435Z,11.16
2023-02-19T06:53:45.387Z,11.31
2023-02-19T06:54:45.197Z,11.19
2023-02-19T06:55:45.414Z,11.25
2023-02-19T06:56:47.009Z,11.25
2023-02-19T06:57:46.152Z,11.31
2023-02-19T06:58:45.048Z,11.26
2023-02-19T06:59:45.227Z,11.34
2023-02-19T07:00:44.968Z,11.37
2023-02-19T07:01:45.298Z,11.20
2023-02-19T07:02:44.825Z,11.15
2023-02-19T07:03:44.867Z,11.23
2023-02-19T07:04:52.529Z,11.26
2023-02-19T07:06:02.567Z,11.23
2023-02-19T07:06:52.609Z,11.31
2023-02-19T07:07:44.601Z,11.25
2023-02-19T07:08:44.556Z,11.27
2023-02-19T07:09:44.692Z,11.33
2023-02-19T07:10:44.464Z,11.26
2023-02-19T07:11:44.492Z,11.26
2023-02-19T07:12:44.558Z,11.31
2023-02-19T07:13:44.320Z,11.48
2023-02-19T07:14:44.279Z,11.35
2023-02-19T07:15:44.320Z,11.33
2023-02-19T07:16:44.209Z,11.23
2023-02-19T07:17:44.336Z,11.27
2023-02-19T07:18:44.136Z,11.35
2023-02-19T07:19:44.051Z,11.31
2023-02-19T07:20:44.014Z,11.30
2023-02-19T07:21:44.154Z,11.19
2023-02-19T07:22:43.908Z,11.25
2023-02-19T07:23:43.965Z,11.26
2023-02-19T07:24:44.776Z,11.25
2023-02-19T07:25:43.785Z,11.26
2023-02-19T07:26:43.725Z,11.38
2023-02-19T07:27:43.890Z,11.51
2023-02-19T07:28:43.640Z,11.44
2023-02-19T07:29:43.699Z,11.41
2023-02-19T07:30:43.606Z,11.43
2023-02-19T07:31:43.522Z,11.37
2023-02-19T07:32:43.726Z,11.52
2023-02-19T07:33:43.412Z,11.55
2023-02-19T07:34:43.530Z,11.48
2023-02-19T07:35:43.317Z,11.55
2023-02-19T07:36:43.645Z,11.59
2023-02-19T07:37:43.250Z,11.60
2023-02-19T07:38:43.360Z,11.60
2023-02-19T07:39:43.150Z,11.73
2023-02-19T07:40:43.383Z,11.73
2023-02-19T07:41:43.063Z,11.74
2023-02-19T07:42:43.183Z,11.86
2023-02-19T07:43:42.957Z,11.83
2023-02-19T07:44:42.997Z,11.88
2023-02-19T07:45:42.891Z,11.95
2023-02-19T07:46:43.013Z,11.89
2023-02-19T07:47:42.778Z,11.88
2023-02-19T07:48:42.875Z,11.91
2023-02-19T07:49:42.694Z,11.95
2023-02-19T07:50:42.733Z,11.91
2023-02-19T07:51:42.603Z,11.89
2023-02-19T07:52:42.758Z,11.89
2023-02-19T07:53:42.519Z,11.93
2023-02-19T07:54:42.479Z,11.99
2023-02-19T07:55:42.416Z,11.93
2023-02-19T07:56:42.477Z,11.88
2023-02-19T07:57:42.333Z,11.83
2023-02-19T07:58:42.408Z,11.81
2023-02-19T07:59:42.238Z,11.85
2023-02-19T08:00:42.225Z,11.88
2023-02-19T08:01:42.151Z,11.91
2023-02-19T08:02:42.410Z,11.88
2023-02-19T08:03:42.107Z,11.93
2023-02-19T08:04:42.124Z,12.03
2023-02-19T08:05:41.966Z,12.12
2023-02-19T08:06:41.962Z,12.18
2023-02-19T08:07:42.142Z,12.28
2023-02-19T08:08:41.845Z,12.32
2023-02-19T08:09:41.969Z,12.39
2023-02-19T08:10:41.745Z,12.53
2023-02-19T08:11:41.966Z,12.65
2023-02-19T08:12:41.658Z,12.70
2023-02-19T08:13:41.776Z,12.80
2023-02-19T08:14:41.560Z,12.80
2023-02-19T08:15:41.691Z,12.99
2023-02-19T08:16:43.507Z,12.98
2023-02-19T08:17:41.703Z,13.08
2023-02-19T08:18:41.386Z,13.11
2023-02-19T08:19:41.722Z,13.21
2023-02-19T08:20:41.308Z,13.26
2023-02-19T08:21:41.530Z,13.46
2023-02-19T08:22:41.216Z,13.54
2023-02-19T08:23:41.346Z,13.52
2023-02-19T08:24:41.125Z,13.60
2023-02-19T08:25:41.161Z,13.71
2023-02-19T08:26:41.030Z,13.89
2023-02-19T08:27:41.161Z,13.89
2023-02-19T08:28:40.957Z,13.86
2023-02-19T08:29:40.897Z,13.86
2023-02-19T08:30:40.965Z,13.87
2023-02-19T08:31:41.370Z,13.94
2023-02-19T08:32:40.769Z,13.87
2023-02-19T08:33:41.001Z,14.03
2023-02-19T08:34:40.678Z,13.94
2023-02-19T08:35:40.633Z,13.97
2023-02-19T08:36:40.603Z,14.18
2023-02-19T08:37:40.825Z,14.19
2023-02-19T08:38:40.499Z,14.30
2023-02-19T08:39:40.638Z,14.22
2023-02-19T08:40:40.428Z,14.25
2023-02-19T08:41:40.372Z,14.40
2023-02-19T08:42:40.338Z,14.34
2023-02-19T08:43:40.677Z,14.49
2023-02-19T08:44:40.264Z,14.45
2023-02-19T08:45:40.552Z,14.56
2023-02-19T08:46:40.153Z,14.63
2023-02-19T08:47:40.108Z,14.74
2023-02-19T08:48:40.284Z,14.81
2023-02-19T08:49:40.032Z,14.77
2023-02-19T08:50:40.299Z,14.73
2023-02-19T08:51:39.939Z,14.82
2023-02-19T08:52:39.916Z,14.90
2023-02-19T08:53:39.850Z,15.04
2023-02-19T08:54:39.922Z,15.15
2023-02-19T08:55:39.764Z,15.25
2023-02-19T08:56:39.941Z,15.37
2023-02-19T08:57:39.689Z,15.36
2023-02-19T08:58:39.633Z,15.30
2023-02-19T08:59:39.584Z,15.22
2023-02-19T09:00:39.759Z,15.04
2023-02-19T09:01:39.537Z,15.02
2023-02-19T09:02:39.979Z,15.00
2023-02-19T09:03:39.441Z,15.07
2023-02-19T09:04:39.368Z,15.17
2023-02-19T09:05:39.333Z,15.18
2023-02-19T09:06:40.124Z,15.36
2023-02-19T09:07:39.242Z,15.54
2023-02-19T09:08:39.414Z,15.44
2023-02-19T09:09:39.473Z,15.41
2023-02-19T09:10:39.109Z,15.39
2023-02-19T09:11:39.249Z,15.41
2023-02-19T09:12:39.026Z,15.37
2023-02-19T09:13:39.255Z,15.39
2023-02-19T09:14:39.096Z,15.22
2023-02-19T09:15:39.074Z,15.17
2023-02-19T09:16:38.852Z,15.26
2023-02-19T09:17:39.069Z,15.23
2023-02-19T09:18:38.768Z,15.19
2023-02-19T09:19:38.874Z,15.27
2023-02-19T09:20:38.678Z,15.39
2023-02-19T09:21:38.636Z,15.37
2023-02-19T09:22:38.598Z,15.52
2023-02-19T09:23:38.806Z,15.62
2023-02-19T09:24:38.773Z,15.62
2023-02-19T09:25:38.614Z,15.44
2023-02-19T09:26:38.729Z,15.47
2023-02-19T09:27:38.390Z,15.59
2023-02-19T09:28:38.353Z,15.67
2023-02-19T09:29:38.438Z,15.73
2023-02-19T09:30:38.325Z,15.75
2023-02-19T09:31:38.513Z,15.81
2023-02-19T09:32:38.173Z,15.85
2023-02-19T09:33:38.136Z,15.80
2023-02-19T09:34:38.270Z,15.70
2023-02-19T09:35:38.047Z,15.80
2023-02-19T09:36:38.293Z,15.76
2023-02-19T09:37:37.961Z,15.67
2023-02-19T09:38:38.100Z,15.67
2023-02-19T09:39:37.875Z,15.72
2023-02-19T09:40:38.110Z,15.75
2023-02-19T09:41:37.787Z,15.67
2023-02-19T09:42:37.937Z,15.87
2023-02-19T09:43:37.704Z,15.96
2023-02-19T09:44:37.940Z,15.92
2023-02-19T09:45:37.628Z,15.78
2023-02-19T09:46:37.754Z,15.81
2023-02-19T09:47:37.536Z,15.83
2023-02-19T09:48:37.767Z,15.80
2023-02-19T09:49:37.450Z,16.00
2023-02-19T09:50:37.405Z,15.92
2023-02-19T09:51:37.378Z,16.05
2023-02-19T09:52:37.486Z,16.06
2023-02-19T09:53:37.281Z,16.12
2023-02-19T09:54:37.498Z,16.18
2023-02-19T09:55:37.195Z,16.06
2023-02-19T09:56:37.152Z,16.05
2023-02-19T09:57:37.365Z,16.24
2023-02-19T09:58:37.324Z,16.22
2023-02-19T09:59:37.046Z,16.24
2023-02-19T10:00:37.132Z,16.13
2023-02-19T10:01:36.940Z,16.22
2023-02-19T10:02:36.901Z,16.39
2023-02-19T10:03:36.873Z,16.44
2023-02-19T10:04:36.970Z,16.40
2023-02-19T10:05:36.770Z,16.46
2023-02-19T10:06:36.966Z,16.49
2023-02-19T10:07:36.681Z,16.41
2023-02-19T10:08:36.645Z,16.54
2023-02-19T10:09:36.652Z,16.65
2023-02-19T10:10:36.792Z,16.72
2023-02-19T10:11:36.514Z,16.68
2023-02-19T10:12:36.605Z,16.79
2023-02-19T10:13:36.428Z,16.95
2023-02-19T10:14:36.392Z,17.13
2023-02-19T10:15:36.657Z,17.27
2023-02-19T10:16:36.302Z,17.32
2023-02-19T10:17:36.435Z,17.39
2023-02-19T10:18:36.220Z,17.46
2023-02-19T10:19:37.488Z,17.57
2023-02-19T10:20:38.357Z,17.69
2023-02-19T10:21:36.272Z,17.68
2023-02-19T10:22:36.057Z,17.54
2023-02-19T10:23:36.280Z,17.72
2023-02-19T10:24:38.327Z,17.57
2023-02-19T10:25:36.089Z,17.54
2023-02-19T10:26:37.143Z,17.57
2023-02-19T10:27:35.854Z,17.59
2023-02-19T10:28:36.144Z,17.47
2023-02-19T10:29:35.767Z,17.32
2023-02-19T10:30:36.015Z,17.32
2023-02-19T10:31:36.144Z,17.38
2023-02-19T10:32:35.640Z,17.38
2023-02-19T10:33:35.747Z,17.30
2023-02-19T10:34:35.555Z,17.35
2023-02-19T10:35:35.757Z,17.32
2023-02-19T10:36:35.475Z,17.37
2023-02-19T10:37:36.590Z,17.39
2023-02-19T10:38:35.392Z,17.49
2023-02-19T10:39:35.574Z,17.52
2023-02-19T10:40:35.327Z,17.59
2023-02-19T10:41:35.384Z,17.65
2023-02-19T10:42:35.227Z,17.93
2023-02-19T10:43:35.450Z,17.93
2023-02-19T10:44:35.149Z,18.00
2023-02-19T10:45:35.432Z,18.11
2023-02-19T10:46:35.159Z,17.98
2023-02-19T10:47:35.254Z,17.97
2023-02-19T10:48:34.985Z,18.08
2023-02-19T10:49:34.962Z,17.87
2023-02-19T10:50:34.903Z,17.88
2023-02-19T10:51:35.054Z,18.03
2023-02-19T10:52:34.825Z,18.08
2023-02-19T10:53:35.074Z,18.16
2023-02-19T10:54:34.739Z,18.37
2023-02-19T10:55:37.473Z,18.43
2023-02-19T10:56:34.879Z,18.33
2023-02-19T10:57:34.636Z,18.37
2023-02-19T10:58:34.892Z,18.51
2023-02-19T10:59:34.546Z,18.53
2023-02-19T11:00:34.709Z,18.61
2023-02-19T11:01:34.503Z,18.82
2023-02-19T11:02:34.717Z,19.00
2023-02-19T11:03:34.372Z,18.97
2023-02-19T11:04:34.574Z,19.05
2023-02-19T11:05:34.300Z,19.04
2023-02-19T11:06:35.137Z,19.08
2023-02-19T11:07:34.394Z,18.97
2023-02-19T11:08:34.358Z,19.16
2023-02-19T11:09:34.129Z,19.00
2023-02-19T11:10:35.289Z,18.94
2023-02-19T11:11:34.051Z,19.01
2023-02-19T11:12:34.279Z,18.83
2023-02-19T11:13:33.997Z,18.74
2023-02-19T11:14:34.091Z,18.45
2023-02-19T11:15:33.888Z,18.24
2023-02-19T11:16:34.104Z,18.19
2023-02-19T11:17:33.812Z,18.13
2023-02-19T11:18:33.772Z,18.06
2023-02-19T11:19:33.967Z,18.16
2023-02-19T11:20:33.935Z,18.23
2023-02-19T11:21:33.646Z,18.30
2023-02-19T11:22:33.770Z,18.16
2023-02-19T11:23:33.577Z,18.31
2023-02-19T11:24:33.525Z,18.41
2023-02-19T11:25:33.524Z,18.36
2023-02-19T11:26:33.670Z,18.09
2023-02-19T11:27:33.406Z,17.98
2023-02-19T11:28:33.471Z,17.87
2023-02-19T11:29:33.325Z,17.69
2023-02-19T11:30:35.800Z,17.73
2023-02-19T11:31:33.356Z,17.54
2023-02-19T11:32:34.323Z,17.75
2023-02-19T11:33:33.182Z,17.65
2023-02-19T11:34:33.311Z,17.52
2023-02-19T11:35:33.091Z,17.71
2023-02-19T11:36:33.048Z,17.79
2023-02-19T11:37:33.238Z,18.09
2023-02-19T11:38:32.961Z,18.49
2023-02-19T11:39:33.049Z,19.00
2023-02-19T11:40:32.889Z,19.60
2023-02-19T11:41:33.072Z,20.29
2023-02-19T11:42:32.863Z,20.89
2023-02-19T11:43:32.799Z,21.47
2023-02-19T11:44:32.878Z,21.75
2023-02-19T11:45:32.692Z,21.81
2023-02-19T11:46:32.727Z,21.83
2023-02-19T11:47:32.615Z,21.78
2023-02-19T11:48:32.580Z,21.65
2023-02-19T11:49:32.911Z,21.30
2023-02-19T11:50:32.502Z,21.10
2023-02-19T11:51:32.537Z,21.35
2023-02-19T11:52:32.426Z,21.25
2023-02-19T11:53:32.538Z,20.98
2023-02-19T11:54:32.360Z,20.92
2023-02-19T11:55:32.562Z,21.07
2023-02-19T11:56:32.284Z,21.35
2023-02-19T11:57:32.367Z,21.56
2023-02-19T11:58:32.199Z,21.68
2023-02-19T11:59:32.373Z,21.81
2023-02-19T12:00:32.131Z,22.15
2023-02-19T12:01:32.163Z,22.18
2023-02-19T12:02:32.202Z,22.23
2023-02-19T12:03:32.021Z,22.22
2023-02-19T12:04:32.208Z,22.47
2023-02-19T12:05:31.943Z,23.01
2023-02-19T12:06:31.910Z,23.14
2023-02-19T12:07:32.230Z,23.56
2023-02-19T12:08:31.842Z,23.85
2023-02-19T12:09:32.043Z,23.84
2023-02-19T12:10:31.768Z,23.84
2023-02-19T12:11:31.847Z,23.63
2023-02-19T12:12:31.697Z,23.36
2023-02-19T12:13:31.675Z,23.51
2023-02-19T12:14:31.774Z,23.39
2023-02-19T12:15:32.186Z,23.33
2023-02-19T12:16:31.828Z,23.23
2023-02-19T12:17:31.513Z,22.62
2023-02-19T12:18:31.833Z,22.22
2023-02-19T12:19:31.699Z,21.92
2023-02-19T12:20:32.007Z,21.89
2023-02-19T12:21:31.611Z,21.68
2023-02-19T12:22:31.338Z,21.92
2023-02-19T12:23:31.425Z,21.85
2023-02-19T12:24:31.429Z,22.25
2023-02-19T12:25:32.837Z,22.38
2023-02-19T12:26:31.249Z,22.31
2023-02-19T12:27:31.197Z,22.44
2023-02-19T12:28:31.254Z,22.58
2023-02-19T12:29:31.087Z,22.22
2023-02-19T12:30:31.081Z,21.84
2023-02-19T12:31:32.995Z,21.68
2023-02-19T12:32:31.080Z,21.19
2023-02-19T12:33:31.134Z,20.89
2023-02-19T12:34:31.093Z,20.66
2023-02-19T12:35:30.876Z,20.37
2023-02-19T12:36:30.833Z,19.92
2023-02-19T12:37:30.908Z,19.79
2023-02-19T12:38:30.750Z,19.55
2023-02-19T12:39:30.838Z,19.41
2023-02-19T12:40:30.725Z,19.19
2023-02-19T12:41:30.639Z,18.79
2023-02-19T12:42:30.593Z,18.51
2023-02-19T12:43:30.560Z,18.39
2023-02-19T12:44:30.755Z,18.39
2023-02-19T12:45:30.518Z,18.23
2023-02-19T12:46:30.666Z,18.26
2023-02-19T12:47:30.402Z,18.05
2023-02-19T12:48:30.374Z,18.03
2023-02-19T12:49:30.329Z,18.02
2023-02-19T12:50:32.345Z,18.08
2023-02-19T12:51:30.366Z,18.23
2023-02-19T12:52:30.306Z,18.45
2023-02-19T12:53:30.168Z,18.53
2023-02-19T12:54:30.136Z,18.73
2023-02-19T12:55:30.093Z,18.78
2023-02-19T12:56:30.129Z,18.83
2023-02-19T12:57:30.042Z,18.89
2023-02-19T12:58:30.146Z,18.71
2023-02-19T12:59:29.946Z,18.82
2023-02-19T13:00:29.967Z,18.70
2023-02-19T13:01:31.136Z,18.57
2023-02-19T13:02:30.022Z,18.52
2023-02-19T13:03:29.774Z,18.41